sensor_id;sensor_type;location;lat;lon;timestamp;pressure;altitude;pressure_sealevel;temperature;humidity
28306;BME280;7516;43.570;1.448;2024-01-25T00:01:28;101471.44;;;9.23;100.00
28306;BME280;7516;43.570;1.448;2024-01-25T00:03:55;101466.69;;;9.17;100.00
28306;BME280;7516;43.570;1.448;2024-01-25T00:06:23;101463.38;;;9.15;100.00
28306;BME280;7516;43.570;1.448;2024-01-25T00:08:51;101457.41;;;9.13;100.00
28306;BME280;7516;43.570;1.448;2024-01-25T00:11:19;101455.03;;;9.10;100.00
28306;BME280;7516;43.570;1.448;2024-01-25T00:13:46;101460.97;;;9.12;100.00
28306;BME280;7516;43.570;1.448;2024-01-25T00:16:14;101458.25;;;9.02;100.00
28306;BME280;7516;43.570;1.448;2024-01-25T00:18:43;101458.34;;;9.00;100.00
28306;BME280;7516;43.570;1.448;2024-01-25T00:21:10;101454.69;;;9.03;100.00
28306;BME280;7516;43.570;1.448;2024-01-25T00:23:38;101452.19;;;9.01;100.00
28306;BME280;7516;43.570;1.448;2024-01-25T00:26:05;101451.22;;;9.02;100.00
28306;BME280;7516;43.570;1.448;2024-01-25T00:28:33;101449.94;;;8.97;100.00
28306;BME280;7516;43.570;1.448;2024-01-25T00:31:00;101446.00;;;8.91;100.00
28306;BME280;7516;43.570;1.448;2024-01-25T00:33:28;101443.72;;;8.98;100.00
28306;BME280;7516;43.570;1.448;2024-01-25T00:35:57;101443.03;;;8.96;100.00
28306;BME280;7516;43.570;1.448;2024-01-25T00:38:25;101436.59;;;9.00;100.00
28306;BME280;7516;43.570;1.448;2024-01-25T00:40:54;101435.06;;;8.97;100.00
28306;BME280;7516;43.570;1.448;2024-01-25T00:43:22;101431.03;;;8.93;100.00
28306;BME280;7516;43.570;1.448;2024-01-25T00:45:50;101428.91;;;8.87;100.00
28306;BME280;7516;43.570;1.448;2024-01-25T00:48:18;101426.03;;;8.79;100.00
28306;BME280;7516;43.570;1.448;2024-01-25T00:50:46;101432.69;;;8.83;100.00
28306;BME280;7516;43.570;1.448;2024-01-25T00:53:16;101425.78;;;8.82;100.00
28306;BME280;7516;43.570;1.448;2024-01-25T00:55:44;101422.72;;;8.77;100.00
28306;BME280;7516;43.570;1.448;2024-01-25T00:58:12;101429.22;;;8.72;100.00
28306;BME280;7516;43.570;1.448;2024-01-25T01:00:40;101424.34;;;8.67;100.00
28306;BME280;7516;43.570;1.448;2024-01-25T01:03:08;101423.63;;;8.65;100.00
28306;BME280;7516;43.570;1.448;2024-01-25T01:05:36;101428.38;;;8.71;100.00
28306;BME280;7516;43.570;1.448;2024-01-25T01:08:04;101417.25;;;8.69;100.00
28306;BME280;7516;43.570;1.448;2024-01-25T01:10:33;101426.03;;;8.68;100.00
28306;BME280;7516;43.570;1.448;2024-01-25T01:13:01;101422.66;;;8.55;100.00
28306;BME280;7516;43.570;1.448;2024-01-25T01:15:28;101422.22;;;8.61;100.00
28306;BME280;7516;43.570;1.448;2024-01-25T01:17:56;101429.22;;;8.60;100.00
28306;BME280;7516;43.570;1.448;2024-01-25T01:20:24;101428.38;;;8.49;100.00
28306;BME280;7516;43.570;1.448;2024-01-25T01:22:52;101422.19;;;8.50;100.00
28306;BME280;7516;43.570;1.448;2024-01-25T01:25:20;101420.31;;;8.52;100.00
28306;BME280;7516;43.570;1.448;2024-01-25T01:27:49;101421.69;;;8.45;100.00
28306;BME280;7516;43.570;1.448;2024-01-25T01:30:16;101414.44;;;8.37;100.00
28306;BME280;7516;43.570;1.448;2024-01-25T01:32:43;101414.44;;;8.37;100.00
28306;BME280;7516;43.570;1.448;2024-01-25T01:35:11;101412.78;;;8.36;100.00
28306;BME280;7516;43.570;1.448;2024-01-25T01:37:39;101407.81;;;8.33;100.00
28306;BME280;7516;43.570;1.448;2024-01-25T01:40:07;101411.94;;;8.36;100.00
28306;BME280;7516;43.570;1.448;2024-01-25T01:42:34;101410.53;;;8.32;100.00
28306;BME280;7516;43.570;1.448;2024-01-25T01:45:04;101415.94;;;8.28;100.00
28306;BME280;7516;43.570;1.448;2024-01-25T01:47:32;101418.53;;;8.28;100.00
28306;BME280;7516;43.570;1.448;2024-01-25T01:49:59;101419.28;;;8.30;100.00
28306;BME280;7516;43.570;1.448;2024-01-25T01:52:27;101418.91;;;8.24;100.00
28306;BME280;7516;43.570;1.448;2024-01-25T01:54:55;101426.00;;;8.22;100.00
28306;BME280;7516;43.570;1.448;2024-01-25T01:57:24;101427.06;;;8.19;100.00
28306;BME280;7516;43.570;1.448;2024-01-25T01:59:52;101427.22;;;8.29;100.00
28306;BME280;7516;43.570;1.448;2024-01-25T02:02:21;101416.78;;;8.29;100.00
28306;BME280;7516;43.570;1.448;2024-01-25T02:04:50;101411.38;;;8.43;100.00
28306;BME280;7516;43.570;1.448;2024-01-25T02:07:17;101407.47;;;8.49;100.00
28306;BME280;7516;43.570;1.448;2024-01-25T02:09:45;101420.78;;;8.57;100.00
28306;BME280;7516;43.570;1.448;2024-01-25T02:12:15;101417.09;;;8.59;100.00
28306;BME280;7516;43.570;1.448;2024-01-25T02:14:44;101420.78;;;8.57;100.00
28306;BME280;7516;43.570;1.448;2024-01-25T02:17:11;101412.59;;;8.61;100.00
28306;BME280;7516;43.570;1.448;2024-01-25T02:19:40;101402.50;;;8.68;100.00
28306;BME280;7516;43.570;1.448;2024-01-25T02:22:08;101411.66;;;8.74;100.00
28306;BME280;7516;43.570;1.448;2024-01-25T02:24:36;101407.50;;;8.82;100.00
28306;BME280;7516;43.570;1.448;2024-01-25T02:27:04;101404.03;;;8.82;100.00
28306;BME280;7516;43.570;1.448;2024-01-25T02:29:33;101396.91;;;8.84;100.00
28306;BME280;7516;43.570;1.448;2024-01-25T02:32:01;101396.09;;;8.83;100.00
28306;BME280;7516;43.570;1.448;2024-01-25T02:34:28;101397.75;;;8.84;100.00
28306;BME280;7516;43.570;1.448;2024-01-25T02:36:56;101392.03;;;8.90;100.00
28306;BME280;7516;43.570;1.448;2024-01-25T02:39:23;101382.06;;;8.84;100.00
28306;BME280;7516;43.570;1.448;2024-01-25T02:41:52;101383.75;;;8.85;100.00
28306;BME280;7516;43.570;1.448;2024-01-25T02:44:19;101384.34;;;8.78;100.00
28306;BME280;7516;43.570;1.448;2024-01-25T02:46:47;101383.03;;;8.83;100.00
28306;BME280;7516;43.570;1.448;2024-01-25T02:49:14;101387.75;;;8.89;100.00
28306;BME280;7516;43.570;1.448;2024-01-25T02:51:42;101385.75;;;8.93;100.00
28306;BME280;7516;43.570;1.448;2024-01-25T02:54:09;101387.66;;;8.91;100.00
28306;BME280;7516;43.570;1.448;2024-01-25T02:56:36;101385.75;;;8.93;100.00
28306;BME280;7516;43.570;1.448;2024-01-25T02:59:05;101383.59;;;8.98;100.00
28306;BME280;7516;43.570;1.448;2024-01-25T03:01:39;101371.63;;;8.95;100.00
28306;BME280;7516;43.570;1.448;2024-01-25T03:04:07;101375.63;;;8.88;100.00
28306;BME280;7516;43.570;1.448;2024-01-25T03:06:34;101363.88;;;8.94;100.00
28306;BME280;7516;43.570;1.448;2024-01-25T03:09:02;101360.22;;;8.96;100.00
28306;BME280;7516;43.570;1.448;2024-01-25T03:11:31;101356.63;;;8.97;100.00
28306;BME280;7516;43.570;1.448;2024-01-25T03:13:58;101356.38;;;9.00;100.00
28306;BME280;7516;43.570;1.448;2024-01-25T03:16:28;101348.09;;;8.95;100.00
28306;BME280;7516;43.570;1.448;2024-01-25T03:18:55;101350.81;;;8.94;100.00
28306;BME280;7516;43.570;1.448;2024-01-25T03:21:23;101349.75;;;8.96;100.00
28306;BME280;7516;43.570;1.448;2024-01-25T03:23:51;101356.63;;;8.97;100.00
28306;BME280;7516;43.570;1.448;2024-01-25T03:26:18;101343.91;;;8.93;100.00
28306;BME280;7516;43.570;1.448;2024-01-25T03:28:46;101354.59;;;8.90;100.00
28306;BME280;7516;43.570;1.448;2024-01-25T03:31:13;101340.69;;;9.00;100.00
28306;BME280;7516;43.570;1.448;2024-01-25T03:33:42;101338.31;;;8.97;100.00
28306;BME280;7516;43.570;1.448;2024-01-25T03:36:13;101337.50;;;8.97;100.00
28306;BME280;7516;43.570;1.448;2024-01-25T03:38:40;101334.78;;;8.87;100.00
28306;BME280;7516;43.570;1.448;2024-01-25T03:41:08;101333.13;;;8.86;100.00
28306;BME280;7516;43.570;1.448;2024-01-25T03:43:36;101322.41;;;8.89;100.00
28306;BME280;7516;43.570;1.448;2024-01-25T03:46:03;101323.84;;;8.93;100.00
28306;BME280;7516;43.570;1.448;2024-01-25T03:48:31;101314.94;;;8.96;100.00
28306;BME280;7516;43.570;1.448;2024-01-25T03:51:00;101317.06;;;9.02;100.00
28306;BME280;7516;43.570;1.448;2024-01-25T03:53:27;101304.09;;;9.00;100.00
28306;BME280;7516;43.570;1.448;2024-01-25T03:55:55;101308.59;;;8.98;100.00
28306;BME280;7516;43.570;1.448;2024-01-25T03:58:23;101307.31;;;8.93;100.00
28306;BME280;7516;43.570;1.448;2024-01-25T04:00:50;101304.94;;;9.01;100.00
28306;BME280;7516;43.570;1.448;2024-01-25T04:03:18;101306.94;;;8.97;100.00
28306;BME280;7516;43.570;1.448;2024-01-25T04:05:45;101308.28;;;8.92;100.00
28306;BME280;7516;43.570;1.448;2024-01-25T04:08:14;101311.22;;;8.98;100.00
28306;BME280;7516;43.570;1.448;2024-01-25T04:10:42;101307.44;;;9.02;100.00
28306;BME280;7516;43.570;1.448;2024-01-25T04:13:09;101309.09;;;8.92;100.00
28306;BME280;7516;43.570;1.448;2024-01-25T04:15:37;101300.75;;;8.98;100.00
28306;BME280;7516;43.570;1.448;2024-01-25T04:18:04;101299.09;;;8.97;100.00
28306;BME280;7516;43.570;1.448;2024-01-25T04:20:32;101302.75;;;9.06;100.00
28306;BME280;7516;43.570;1.448;2024-01-25T04:23:00;101303.75;;;9.05;100.00
28306;BME280;7516;43.570;1.448;2024-01-25T04:25:29;101306.22;;;9.06;100.00
28306;BME280;7516;43.570;1.448;2024-01-25T04:27:56;101301.47;;;9.00;100.00
28306;BME280;7516;43.570;1.448;2024-01-25T04:30:24;101306.22;;;9.06;100.00
28306;BME280;7516;43.570;1.448;2024-01-25T04:32:51;101305.03;;;8.99;100.00
28306;BME280;7516;43.570;1.448;2024-01-25T04:35:19;101302.91;;;9.04;100.00
28306;BME280;7516;43.570;1.448;2024-01-25T04:37:46;101300.53;;;9.01;100.00
28306;BME280;7516;43.570;1.448;2024-01-25T04:40:14;101307.19;;;9.05;100.00
28306;BME280;7516;43.570;1.448;2024-01-25T04:42:42;101303.16;;;9.01;100.00
28306;BME280;7516;43.570;1.448;2024-01-25T04:45:10;101303.53;;;8.97;100.00
28306;BME280;7516;43.570;1.448;2024-01-25T04:47:38;101298.88;;;9.00;100.00
28306;BME280;7516;43.570;1.448;2024-01-25T04:50:06;101293.88;;;8.97;100.00
28306;BME280;7516;43.570;1.448;2024-01-25T04:52:34;101294.84;;;8.96;100.00
28306;BME280;7516;43.570;1.448;2024-01-25T04:55:01;101292.91;;;8.98;100.00
28306;BME280;7516;43.570;1.448;2024-01-25T04:57:29;101292.59;;;8.92;100.00
28306;BME280;7516;43.570;1.448;2024-01-25T04:59:57;101294.97;;;8.95;100.00
28306;BME280;7516;43.570;1.448;2024-01-25T05:02:25;101291.75;;;9.02;100.00
28306;BME280;7516;43.570;1.448;2024-01-25T05:04:52;101292.81;;;9.00;100.00
28306;BME280;7516;43.570;1.448;2024-01-25T05:07:20;101286.84;;;9.09;100.00
28306;BME280;7516;43.570;1.448;2024-01-25T05:09:48;101290.06;;;9.13;100.00
28306;BME280;7516;43.570;1.448;2024-01-25T05:12:15;101294.34;;;9.14;100.00
28306;BME280;7516;43.570;1.448;2024-01-25T05:14:43;101284.56;;;9.16;100.00
28306;BME280;7516;43.570;1.448;2024-01-25T05:17:12;101288.34;;;9.23;100.00
28306;BME280;7516;43.570;1.448;2024-01-25T05:19:39;101290.38;;;9.19;100.00
28306;BME280;7516;43.570;1.448;2024-01-25T05:22:06;101288.84;;;9.17;100.00
28306;BME280;7516;43.570;1.448;2024-01-25T05:24:34;101286.69;;;9.22;100.00
28306;BME280;7516;43.570;1.448;2024-01-25T05:27:02;101282.16;;;9.24;100.00
28306;BME280;7516;43.570;1.448;2024-01-25T05:29:29;101279.28;;;9.27;100.00
28306;BME280;7516;43.570;1.448;2024-01-25T05:31:57;101283.69;;;9.26;100.00
28306;BME280;7516;43.570;1.448;2024-01-25T05:34:26;101280.72;;;9.31;100.00
28306;BME280;7516;43.570;1.448;2024-01-25T05:36:53;101280.44;;;9.34;100.00
28306;BME280;7516;43.570;1.448;2024-01-25T05:39:21;101275.09;;;9.35;100.00
28306;BME280;7516;43.570;1.448;2024-01-25T05:41:48;101270.69;;;9.36;100.00
28306;BME280;7516;43.570;1.448;2024-01-25T05:44:16;101269.75;;;9.37;100.00
28306;BME280;7516;43.570;1.448;2024-01-25T05:46:43;101271.97;;;9.41;100.00
28306;BME280;7516;43.570;1.448;2024-01-25T05:49:11;101269.34;;;9.41;100.00
28306;BME280;7516;43.570;1.448;2024-01-25T05:51:40;101287.81;;;9.40;100.00
28306;BME280;7516;43.570;1.448;2024-01-25T05:54:07;101279.97;;;9.40;100.00
28306;BME280;7516;43.570;1.448;2024-01-25T05:56:35;101284.25;;;9.41;100.00
28306;BME280;7516;43.570;1.448;2024-01-25T05:59:02;101272.25;;;9.38;100.00
28306;BME280;7516;43.570;1.448;2024-01-25T06:01:29;101273.38;;;9.46;100.00
28306;BME280;7516;43.570;1.448;2024-01-25T06:03:57;101273.28;;;9.47;100.00
28306;BME280;7516;43.570;1.448;2024-01-25T06:06:24;101268.41;;;9.42;100.00
28306;BME280;7516;43.570;1.448;2024-01-25T06:08:53;101268.88;;;9.48;100.00
28306;BME280;7516;43.570;1.448;2024-01-25T06:11:21;101277.56;;;9.48;100.00
28306;BME280;7516;43.570;1.448;2024-01-25T06:13:48;101279.44;;;9.46;100.00
28306;BME280;7516;43.570;1.448;2024-01-25T06:16:15;101282.69;;;9.38;100.00
28306;BME280;7516;43.570;1.448;2024-01-25T06:18:43;101280.44;;;9.34;100.00
28306;BME280;7516;43.570;1.448;2024-01-25T06:21:10;101282.69;;;9.38;100.00
28306;BME280;7516;43.570;1.448;2024-01-25T06:23:38;101283.44;;;9.29;100.00
28306;BME280;7516;43.570;1.448;2024-01-25T06:26:07;101287.22;;;9.36;100.00
28306;BME280;7516;43.570;1.448;2024-01-25T06:28:34;101283.41;;;9.40;100.00
28306;BME280;7516;43.570;1.448;2024-01-25T06:31:02;101281.47;;;9.42;100.00
28306;BME280;7516;43.570;1.448;2024-01-25T06:33:29;101271.41;;;9.38;100.00
28306;BME280;7516;43.570;1.448;2024-01-25T06:35:58;101270.94;;;9.33;100.00
28306;BME280;7516;43.570;1.448;2024-01-25T06:38:25;101267.38;;;9.34;100.00
28306;BME280;7516;43.570;1.448;2024-01-25T06:40:53;101276.88;;;9.35;100.00
28306;BME280;7516;43.570;1.448;2024-01-25T06:43:22;101270.38;;;9.29;100.00
28306;BME280;7516;43.570;1.448;2024-01-25T06:45:49;101280.25;;;9.26;100.00
28306;BME280;7516;43.570;1.448;2024-01-25T06:48:17;101282.69;;;9.38;100.00
28306;BME280;7516;43.570;1.448;2024-01-25T06:50:44;101294.25;;;9.36;100.00
28306;BME280;7516;43.570;1.448;2024-01-25T06:53:12;101287.94;;;9.38;100.00
28306;BME280;7516;43.570;1.448;2024-01-25T06:55:39;101283.53;;;9.39;100.00
28306;BME280;7516;43.570;1.448;2024-01-25T06:58:07;101286.91;;;9.30;100.00
28306;BME280;7516;43.570;1.448;2024-01-25T07:00:36;101276.78;;;9.25;100.00
28306;BME280;7516;43.570;1.448;2024-01-25T07:03:04;101277.31;;;9.19;100.00
28306;BME280;7516;43.570;1.448;2024-01-25T07:05:32;101268.38;;;9.22;100.00
28306;BME280;7516;43.570;1.448;2024-01-25T07:08:01;101273.84;;;9.19;100.00
28306;BME280;7516;43.570;1.448;2024-01-25T07:10:29;101264.81;;;9.23;100.00
28306;BME280;7516;43.570;1.448;2024-01-25T07:12:56;101267.44;;;9.23;100.00
28306;BME280;7516;43.570;1.448;2024-01-25T07:15:24;101271.25;;;9.19;100.00
28306;BME280;7516;43.570;1.448;2024-01-25T07:17:53;101268.84;;;9.16;100.00
28306;BME280;7516;43.570;1.448;2024-01-25T07:20:20;101263.78;;;9.14;100.00
28306;BME280;7516;43.570;1.448;2024-01-25T07:22:47;101269.34;;;9.21;100.00
28306;BME280;7516;43.570;1.448;2024-01-25T07:25:15;101272.56;;;9.13;100.00
28306;BME280;7516;43.570;1.448;2024-01-25T07:27:44;101274.59;;;9.10;100.00
28306;BME280;7516;43.570;1.448;2024-01-25T07:30:13;101274.97;;;9.05;100.00
28306;BME280;7516;43.570;1.448;2024-01-25T07:32:41;101283.41;;;8.97;100.00
28306;BME280;7516;43.570;1.448;2024-01-25T07:35:10;101282.94;;;9.03;100.00
28306;BME280;7516;43.570;1.448;2024-01-25T07:37:38;101286.03;;;8.97;100.00
28306;BME280;7516;43.570;1.448;2024-01-25T07:40:08;101286.75;;;8.99;100.00
28306;BME280;7516;43.570;1.448;2024-01-25T07:42:38;101280.13;;;8.95;100.00
28306;BME280;7516;43.570;1.448;2024-01-25T07:45:06;101282.97;;;8.92;100.00
28306;BME280;7516;43.570;1.448;2024-01-25T07:47:34;101284.28;;;8.87;100.00
28306;BME280;7516;43.570;1.448;2024-01-25T07:50:02;101289.38;;;8.88;100.00
28306;BME280;7516;43.570;1.448;2024-01-25T07:52:31;101282.13;;;8.92;100.00
28306;BME280;7516;43.570;1.448;2024-01-25T07:54:58;101284.75;;;8.92;100.00
28306;BME280;7516;43.570;1.448;2024-01-25T07:57:26;101281.06;;;8.94;100.00
28306;BME280;7516;43.570;1.448;2024-01-25T07:59:53;101286.50;;;9.02;100.00
28306;BME280;7516;43.570;1.448;2024-01-25T08:02:21;101290.53;;;9.06;100.00
28306;BME280;7516;43.570;1.448;2024-01-25T08:04:49;101283.66;;;9.05;100.00
28306;BME280;7516;43.570;1.448;2024-01-25T08:07:16;101276.84;;;9.14;100.00
28306;BME280;7516;43.570;1.448;2024-01-25T08:09:45;101284.31;;;9.19;100.00
28306;BME280;7516;43.570;1.448;2024-01-25T08:12:13;101279.72;;;9.11;100.00
28306;BME280;7516;43.570;1.448;2024-01-25T08:14:40;101278.13;;;9.20;100.00
28306;BME280;7516;43.570;1.448;2024-01-25T08:17:10;101283.13;;;9.23;100.00
28306;BME280;7516;43.570;1.448;2024-01-25T08:19:37;101282.38;;;9.32;100.00
28306;BME280;7516;43.570;1.448;2024-01-25T08:22:05;101282.16;;;9.24;100.00
28306;BME280;7516;43.570;1.448;2024-01-25T08:24:33;101283.81;;;9.25;100.00
28306;BME280;7516;43.570;1.448;2024-01-25T08:27:02;101285.47;;;9.26;100.00
28306;BME280;7516;43.570;1.448;2024-01-25T08:29:30;101285.44;;;9.37;100.00
28306;BME280;7516;43.570;1.448;2024-01-25T08:31:57;101285.44;;;9.37;100.00
28306;BME280;7516;43.570;1.448;2024-01-25T08:34:25;101282.78;;;9.48;100.00
28306;BME280;7516;43.570;1.448;2024-01-25T08:36:52;101291.59;;;9.47;100.00
28306;BME280;7516;43.570;1.448;2024-01-25T08:39:20;101295.41;;;9.43;100.00
28306;BME280;7516;43.570;1.448;2024-01-25T08:41:47;101287.75;;;9.51;100.00
28306;BME280;7516;43.570;1.448;2024-01-25T08:44:17;101284.75;;;9.56;100.00
28306;BME280;7516;43.570;1.448;2024-01-25T08:46:45;101282.72;;;9.59;100.00
28306;BME280;7516;43.570;1.448;2024-01-25T08:49:12;101288.66;;;9.61;100.00
28306;BME280;7516;43.570;1.448;2024-01-25T08:51:40;101280.69;;;9.63;100.00
28306;BME280;7516;43.570;1.448;2024-01-25T08:54:07;101285.31;;;9.59;100.00
28306;BME280;7516;43.570;1.448;2024-01-25T08:56:35;101290.84;;;9.56;100.00
28306;BME280;7516;43.570;1.448;2024-01-25T08:59:03;101295.75;;;9.70;100.00
28306;BME280;7516;43.570;1.448;2024-01-25T09:01:31;101293.13;;;9.70;100.00
28306;BME280;7516;43.570;1.448;2024-01-25T09:03:59;101294.03;;;9.80;100.00
28306;BME280;7516;43.570;1.448;2024-01-25T09:06:28;101293.06;;;9.81;100.00
28306;BME280;7516;43.570;1.448;2024-01-25T09:08:56;101296.78;;;9.79;100.00
28306;BME280;7516;43.570;1.448;2024-01-25T09:11:24;101294.03;;;9.80;100.00
28306;BME280;7516;43.570;1.448;2024-01-25T09:13:51;101295.44;;;9.85;100.00
28306;BME280;7516;43.570;1.448;2024-01-25T09:16:19;101297.41;;;9.92;100.00
28306;BME280;7516;43.570;1.448;2024-01-25T09:18:49;101296.72;;;9.90;100.00
28306;BME280;7516;43.570;1.448;2024-01-25T09:21:17;101294.41;;;9.97;100.00
28306;BME280;7516;43.570;1.448;2024-01-25T09:23:46;101302.00;;;10.00;100.00
28306;BME280;7516;43.570;1.448;2024-01-25T09:26:16;101303.41;;;10.04;100.00
28306;BME280;7516;43.570;1.448;2024-01-25T09:28:43;101304.69;;;10.09;100.00
28306;BME280;7516;43.570;1.448;2024-01-25T09:31:11;101311.97;;;10.27;100.00
28306;BME280;7516;43.570;1.448;2024-01-25T09:33:38;101309.47;;;10.25;100.00
28306;BME280;7516;43.570;1.448;2024-01-25T09:36:08;101301.97;;;10.41;100.00
28306;BME280;7516;43.570;1.448;2024-01-25T09:38:35;101304.84;;;10.38;100.00
28306;BME280;7516;43.570;1.448;2024-01-25T09:41:03;101302.56;;;10.45;100.00
28306;BME280;7516;43.570;1.448;2024-01-25T09:43:32;101301.84;;;10.43;100.00
28306;BME280;7516;43.570;1.448;2024-01-25T09:46:00;101295.53;;;10.45;100.00
28306;BME280;7516;43.570;1.448;2024-01-25T09:48:28;101296.38;;;10.55;100.00
28306;BME280;7516;43.570;1.448;2024-01-25T09:50:56;101291.16;;;10.65;100.00
28306;BME280;7516;43.570;1.448;2024-01-25T09:53:27;101287.31;;;10.69;100.00
28306;BME280;7516;43.570;1.448;2024-01-25T09:56:03;101293.44;;;10.79;100.00
28306;BME280;7516;43.570;1.448;2024-01-25T09:58:37;101297.03;;;10.88;100.00
28306;BME280;7516;43.570;1.448;2024-01-25T10:01:08;101298.13;;;10.85;100.00
28306;BME280;7516;43.570;1.448;2024-01-25T10:03:36;101294.69;;;10.94;100.00
28306;BME280;7516;43.570;1.448;2024-01-25T10:06:06;101294.44;;;10.98;100.00
28306;BME280;7516;43.570;1.448;2024-01-25T10:08:36;101301.75;;;11.04;100.00
28306;BME280;7516;43.570;1.448;2024-01-25T10:11:04;101293.91;;;11.13;100.00
28306;BME280;7516;43.570;1.448;2024-01-25T10:13:31;101291.97;;;11.06;100.00
28306;BME280;7516;43.570;1.448;2024-01-25T10:15:59;101292.63;;;10.98;100.00
28306;BME280;7516;43.570;1.448;2024-01-25T10:18:26;101298.41;;;10.92;100.00
28306;BME280;7516;43.570;1.448;2024-01-25T10:20:54;101289.03;;;10.89;100.00
28306;BME280;7516;43.570;1.448;2024-01-25T10:23:22;101294.00;;;10.92;100.00
28306;BME280;7516;43.570;1.448;2024-01-25T10:25:50;101294.13;;;10.91;100.00
28306;BME280;7516;43.570;1.448;2024-01-25T10:28:18;101299.25;;;11.02;100.00
28306;BME280;7516;43.570;1.448;2024-01-25T10:30:47;101289.19;;;11.07;100.00
28306;BME280;7516;43.570;1.448;2024-01-25T10:33:16;101288.47;;;10.86;100.00
28306;BME280;7516;43.570;1.448;2024-01-25T10:35:44;101284.59;;;11.00;100.00
28306;BME280;7516;43.570;1.448;2024-01-25T10:38:16;101287.94;;;11.11;100.00
28306;BME280;7516;43.570;1.448;2024-01-25T10:40:45;101283.66;;;11.10;100.00
28306;BME280;7516;43.570;1.448;2024-01-25T10:43:14;101279.97;;;11.22;100.00
28306;BME280;7516;43.570;1.448;2024-01-25T10:45:42;101275.53;;;11.32;100.00
28306;BME280;7516;43.570;1.448;2024-01-25T10:48:10;101279.41;;;11.48;100.00
28306;BME280;7516;43.570;1.448;2024-01-25T10:50:37;101268.63;;;11.51;100.00
28306;BME280;7516;43.570;1.448;2024-01-25T10:53:06;101260.75;;;11.41;100.00
28306;BME280;7516;43.570;1.448;2024-01-25T10:55:35;101263.66;;;11.57;100.00
28306;BME280;7516;43.570;1.448;2024-01-25T10:58:03;101263.63;;;11.67;100.00
28306;BME280;7516;43.570;1.448;2024-01-25T11:00:32;101251.50;;;11.76;100.00
28306;BME280;7516;43.570;1.448;2024-01-25T11:03:01;101245.66;;;11.62;100.00
28306;BME280;7516;43.570;1.448;2024-01-25T11:05:28;101248.28;;;11.62;100.00
28306;BME280;7516;43.570;1.448;2024-01-25T11:07:56;101246.66;;;11.52;100.00
28306;BME280;7516;43.570;1.448;2024-01-25T11:10:25;101239.75;;;11.51;100.00
28306;BME280;7516;43.570;1.448;2024-01-25T11:12:56;101230.88;;;11.61;100.00
28306;BME280;7516;43.570;1.448;2024-01-25T11:15:31;101219.97;;;11.66;100.00
28306;BME280;7516;43.570;1.448;2024-01-25T11:17:59;101221.63;;;11.67;100.00
28306;BME280;7516;43.570;1.448;2024-01-25T11:20:29;101218.06;;;11.58;100.00
28306;BME280;7516;43.570;1.448;2024-01-25T11:22:58;101213.91;;;11.75;100.00
28306;BME280;7516;43.570;1.448;2024-01-25T11:25:30;101202.28;;;11.78;100.00
28306;BME280;7516;43.570;1.448;2024-01-25T11:27:58;101203.38;;;11.75;100.00
28306;BME280;7516;43.570;1.448;2024-01-25T11:30:28;101192.28;;;11.72;100.00
28306;BME280;7516;43.570;1.448;2024-01-25T11:32:57;101198.81;;;11.77;100.00
28306;BME280;7516;43.570;1.448;2024-01-25T11:35:24;101195.91;;;11.61;100.00
28306;BME280;7516;43.570;1.448;2024-01-25T11:37:53;101199.78;;;11.76;100.00
28306;BME280;7516;43.570;1.448;2024-01-25T11:40:21;101189.78;;;11.89;100.00
28306;BME280;7516;43.570;1.448;2024-01-25T11:42:50;101193.09;;;11.91;100.00
28306;BME280;7516;43.570;1.448;2024-01-25T11:45:18;101195.88;;;11.90;100.00
28306;BME280;7516;43.570;1.448;2024-01-25T11:47:45;101189.50;;;11.92;100.00
28306;BME280;7516;43.570;1.448;2024-01-25T11:50:14;101183.88;;;11.87;100.00
28306;BME280;7516;43.570;1.448;2024-01-25T11:52:42;101173.16;;;11.98;100.00
28306;BME280;7516;43.570;1.448;2024-01-25T11:55:10;101170.34;;;11.63;100.00
28306;BME280;7516;43.570;1.448;2024-01-25T11:57:39;101163.31;;;11.54;100.00
28306;BME280;7516;43.570;1.448;2024-01-25T12:00:09;101155.44;;;11.54;100.00
28306;BME280;7516;43.570;1.448;2024-01-25T12:02:38;101158.59;;;11.67;100.00
28306;BME280;7516;43.570;1.448;2024-01-25T12:05:08;101150.03;;;11.65;100.00
28306;BME280;7516;43.570;1.448;2024-01-25T12:07:39;101143.00;;;11.56;100.00
28306;BME280;7516;43.570;1.448;2024-01-25T12:10:08;101141.78;;;11.60;100.00
28306;BME280;7516;43.570;1.448;2024-01-25T12:12:37;101141.25;;;11.47;100.00
28306;BME280;7516;43.570;1.448;2024-01-25T12:15:06;101135.28;;;11.54;100.00
28306;BME280;7516;43.570;1.448;2024-01-25T12:17:34;101132.22;;;11.59;100.00
28306;BME280;7516;43.570;1.448;2024-01-25T12:20:05;101127.81;;;11.59;100.00
28306;BME280;7516;43.570;1.448;2024-01-25T12:22:38;101119.59;;;11.72;100.00
28306;BME280;7516;43.570;1.448;2024-01-25T12:25:07;101113.09;;;11.86;100.00
28306;BME280;7516;43.570;1.448;2024-01-25T12:27:36;101111.47;;;11.75;100.00
28306;BME280;7516;43.570;1.448;2024-01-25T12:30:05;101113.50;;;11.81;100.00
28306;BME280;7516;43.570;1.448;2024-01-25T12:32:32;101105.63;;;11.81;100.00
28306;BME280;7516;43.570;1.448;2024-01-25T12:35:01;101105.50;;;11.83;100.00
28306;BME280;7516;43.570;1.448;2024-01-25T12:37:30;101101.03;;;11.93;100.00
28306;BME280;7516;43.570;1.448;2024-01-25T12:40:00;101096.69;;;12.01;100.00
28306;BME280;7516;43.570;1.448;2024-01-25T12:42:28;101101.34;;;12.07;100.00
28306;BME280;7516;43.570;1.448;2024-01-25T12:44:56;101082.66;;;12.11;100.00
28306;BME280;7516;43.570;1.448;2024-01-25T12:47:24;101092.72;;;12.15;100.00
28306;BME280;7516;43.570;1.448;2024-01-25T12:49:52;101082.06;;;12.17;100.00
28306;BME280;7516;43.570;1.448;2024-01-25T12:52:20;101085.25;;;12.20;100.00
28306;BME280;7516;43.570;1.448;2024-01-25T12:54:47;101074.25;;;12.25;100.00
28306;BME280;7516;43.570;1.448;2024-01-25T12:57:17;101079.91;;;12.30;100.00
28306;BME280;7516;43.570;1.448;2024-01-25T12:59:45;101082.78;;;12.36;100.00
28306;BME280;7516;43.570;1.448;2024-01-25T13:02:13;101071.97;;;12.39;100.00